Time;durP1;ratioP1;P1;durP2;ratioP2;P2;SDS_P1;SDS_P2;PMS_P1;PMS_P2;Temp;Humidity;BMP_temperature;BMP_pressure;BME280_temperature;BME280_humidity;BME280_pressure;Samples;Min_cycle;Max_cycle;Signal;HPM_P1;HPM_P2
2022/07/09 00:00:29;;;;;;;16.77;9.20;;;;;;;27.34;62.86;100195.78;5059691;28;20115;-60
2022/07/09 00:03:00;;;;;;;24.73;10.03;;;;;;;27.43;61.85;100197.66;5059520;28;20049;-60
2022/07/09 00:05:31;;;;;;;18.20;9.00;;;;;;;27.46;60.46;100202.75;5059371;28;20091;-60
2022/07/09 00:08:01;;;;;;;18.87;8.73;;;;;;;27.52;61.61;100195.97;5059020;28;20045;-59
2022/07/09 00:10:32;;;;;;;48.93;10.23;;;;;;;27.57;60.19;100200.94;5059011;28;20155;-60
2022/07/09 00:13:04;;;;;;;18.50;8.77;;;;;;;27.62;59.38;100204.06;5057169;28;20266;-60
2022/07/09 00:15:35;;;;;;;21.07;8.60;;;;;;;27.67;60.47;100197.28;5051233;28;20080;-60
2022/07/09 00:18:06;;;;;;;16.73;8.93;;;;;;;27.82;59.34;100189.72;5047555;28;21267;-60
2022/07/09 00:20:36;;;;;;;27.37;8.93;;;;;;;28.01;60.06;100193.44;5054664;28;20150;-60
2022/07/09 00:23:07;;;;;;;15.83;7.80;;;;;;;28.11;59.70;100194.31;5055370;28;20052;-60
2022/07/09 00:25:38;;;;;;;13.93;7.80;;;;;;;28.31;59.14;100197.88;5052275;28;20049;-60
2022/07/09 00:28:10;;;;;;;15.63;8.27;;;;;;;28.32;57.79;100192.34;5053325;28;20074;-60
2022/07/09 00:30:41;;;;;;;18.73;8.33;;;;;;;28.32;57.52;100189.66;5051935;28;20047;-61
2022/07/09 00:33:12;;;;;;;20.47;8.13;;;;;;;28.48;58.08;100196.31;5054225;28;20108;-60
2022/07/09 00:35:43;;;;;;;47.50;8.60;;;;;;;28.57;57.57;100192.78;5054473;28;20344;-60
2022/07/09 00:38:13;;;;;;;56.30;10.03;;;;;;;28.59;57.68;100190.81;5055477;28;20217;-60
2022/07/09 00:40:44;;;;;;;33.50;8.47;;;;;;;28.65;56.86;100192.06;5054881;28;20309;-61
2022/07/09 00:43:21;;;;;;;17.60;7.30;;;;;;;28.60;57.13;100189.81;5054406;28;20055;-60
2022/07/09 00:45:51;;;;;;;20.83;6.17;;;;;;;28.66;57.49;100189.25;5054807;28;20063;-60
2022/07/09 00:48:22;;;;;;;18.00;6.87;;;;;;;28.78;58.30;100197.97;5055283;28;20116;-61
2022/07/09 00:50:53;;;;;;;40.53;7.77;;;;;;;28.89;57.25;100188.91;5055185;28;20447;-61
2022/07/09 00:53:27;;;;;;;31.57;7.67;;;;;;;28.99;57.36;100189.75;5053600;28;20052;-58
2022/07/09 00:55:57;;;;;;;11.07;5.27;;;;;;;29.07;57.53;100187.19;5056569;28;20060;-61
2022/07/09 00:58:30;;;;;;;34.37;6.07;;;;;;;29.17;55.83;100179.94;5058069;28;20048;-62
2022/07/09 01:01:02;;;;;;;14.67;4.97;;;;;;;29.23;55.78;100182.06;5058986;28;20087;-60
2022/07/09 01:03:33;;;;;;;8.97;6.00;;;;;;;29.13;54.63;100183.94;5059300;28;20310;-61
2022/07/09 01:06:03;;;;;;;16.73;6.00;;;;;;;29.08;56.20;100172.75;5059184;28;20230;-61
2022/07/09 01:08:34;;;;;;;14.97;5.37;;;;;;;29.27;55.77;100176.38;5059114;28;20487;-60
2022/07/09 01:11:05;;;;;;;22.47;5.90;;;;;;;29.36;55.59;100170.09;5059250;28;20060;-61
2022/07/09 01:13:37;;;;;;;17.50;6.00;;;;;;;29.38;54.93;100165.41;5059309;28;20059;-64
2022/07/09 01:16:15;;;;;;;15.60;5.97;;;;;;;29.40;55.98;100171.47;5058274;28;20053;-61
2022/07/09 01:18:46;;;;;;;11.00;5.57;;;;;;;29.44;55.29;100162.13;5058661;28;20902;-60
2022/07/09 01:21:19;;;;;;;15.80;5.37;;;;;;;29.39;55.08;100159.88;5056480;28;20064;-60
2022/07/09 01:23:50;;;;;;;10.50;5.80;;;;;;;29.48;55.80;100147.38;5057083;28;20060;-60
2022/07/09 01:26:21;;;;;;;14.17;6.43;;;;;;;29.54;55.81;100146.75;5057997;28;20055;-61
2022/07/09 01:28:51;;;;;;;13.23;6.70;;;;;;;29.55;54.77;100132.28;5057062;28;20073;-60
2022/07/09 01:31:22;;;;;;;17.93;6.50;;;;;;;29.57;55.24;100146.44;5058638;28;20059;-60
2022/07/09 01:33:53;;;;;;;17.13;6.63;;;;;;;29.71;55.36;100147.00;5057820;28;20373;-60
2022/07/09 01:36:25;;;;;;;17.40;7.43;;;;;;;29.71;54.64;100141.59;5058653;28;20063;-60
2022/07/09 01:38:55;;;;;;;12.60;6.73;;;;;;;29.70;54.38;100139.91;5058315;28;20097;-60
2022/07/09 01:41:26;;;;;;;24.53;7.90;;;;;;;29.78;55.50;100137.28;5058605;28;20069;-60
2022/07/09 01:43:57;;;;;;;19.43;7.93;;;;;;;29.94;54.69;100136.63;5058390;28;20052;-60
2022/07/09 01:46:27;;;;;;;15.23;7.50;;;;;;;29.91;53.48;100129.69;5057888;28;20065;-61
2022/07/09 01:48:58;;;;;;;16.20;7.03;;;;;;;29.79;54.87;100133.59;5056723;28;20057;-62
2022/07/09 01:51:32;;;;;;;13.00;7.30;;;;;;;29.92;55.62;100127.84;5057982;28;20037;-61
2022/07/09 01:54:02;;;;;;;19.50;7.33;;;;;;;30.07;55.67;100121.75;5058241;28;20060;-61
2022/07/09 01:56:34;;;;;;;33.60;8.70;;;;;;;30.22;55.37;100118.50;5058022;28;20142;-61
2022/07/09 01:59:05;;;;;;;19.30;8.70;;;;;;;30.33;54.73;100121.00;5058322;28;20380;-59
2022/07/09 02:01:36;;;;;;;15.67;7.70;;;;;;;30.37;54.89;100116.97;5058189;28;20065;-60
2022/07/09 02:04:06;;;;;;;18.70;8.00;;;;;;;30.36;54.60;100114.47;5057563;28;20060;-60
2022/07/09 02:06:39;;;;;;;16.70;9.37;;;;;;;30.45;53.99;100117.06;5056520;28;20084;-59
2022/07/09 02:09:10;;;;;;;18.40;9.63;;;;;;;30.56;53.81;100109.72;5056330;28;20061;-59
2022/07/09 02:11:40;;;;;;;22.30;9.70;;;;;;;30.63;54.15;100111.63;5057459;28;20222;-60
2022/07/09 02:14:11;;;;;;;20.53;9.20;;;;;;;30.76;54.23;100116.56;5057032;28;20052;-59
2022/07/09 02:16:42;;;;;;;14.40;8.83;;;;;;;30.65;53.66;100076.38;5057272;28;20112;-60
2022/07/09 02:19:12;;;;;;;11.20;9.50;;;;;;;30.88;53.58;100112.63;5057616;28;20071;-60
2022/07/09 02:21:45;;;;;;;34.33;11.17;;;;;;;30.77;52.76;100080.50;5057377;28;20079;-60
2022/07/09 02:24:15;;;;;;;21.13;10.13;;;;;;;31.05;52.18;100105.47;5057467;28;20063;-60
2022/07/09 02:26:46;;;;;;;17.27;10.13;;;;;;;31.07;51.71;100108.00;5057504;28;20084;-60
2022/07/09 02:29:16;;;;;;;15.27;9.27;;;;;;;31.05;49.95;100107.31;5057274;28;20122;-60
2022/07/09 02:31:47;;;;;;;16.63;9.57;;;;;;;31.01;49.66;100108.66;5057353;28;20047;-60
2022/07/09 02:34:18;;;;;;;19.33;10.77;;;;;;;30.93;48.87;100099.50;5057323;28;20057;-59
2022/07/09 02:36:50;;;;;;;18.83;9.97;;;;;;;30.94;51.64;100103.88;5057189;28;20045;-60
2022/07/09 02:39:21;;;;;;;131.27;18.73;;;;;;;31.08;52.09;100098.91;5057406;28;20440;-60
2022/07/09 02:41:52;;;;;;;37.83;10.43;;;;;;;31.21;51.80;100104.69;5056613;28;20346;-62
2022/07/09 02:44:23;;;;;;;17.63;10.10;;;;;;;31.13;51.65;100102.81;5056220;28;20221;-60
2022/07/09 02:46:53;;;;;;;13.10;9.67;;;;;;;31.23;51.39;100096.41;5055776;28;20053;-60
2022/07/09 02:49:24;;;;;;;14.77;9.40;;;;;;;31.26;50.83;100107.75;5055974;28;20056;-60
2022/07/09 02:51:59;;;;;;;18.70;9.80;;;;;;;31.34;51.62;100105.06;5056734;28;20214;-59
2022/07/09 02:54:29;;;;;;;44.07;11.30;;;;;;;31.35;51.30;100106.78;5055903;28;20099;-60
2022/07/09 02:57:00;;;;;;;13.50;9.83;;;;;;;31.41;51.30;100104.47;5056621;28;20049;-60
2022/07/09 02:59:31;;;;;;;28.17;10.03;;;;;;;31.29;51.19;100096.63;5056567;28;20047;-60
2022/07/09 03:02:02;;;;;;;14.17;9.00;;;;;;;31.30;52.15;100103.72;5055188;28;20348;-60
2022/07/09 03:04:33;;;;;;;17.30;9.23;;;;;;;31.30;52.00;100103.72;5056713;28;20053;-60
2022/07/09 03:07:05;;;;;;;17.37;8.67;;;;;;;31.34;53.23;100105.06;5056422;28;20049;-60
2022/07/09 03:09:36;;;;;;;30.30;13.37;;;;;;;31.28;54.19;100108.44;5055110;28;20053;-59
2022/07/09 03:12:08;;;;;;;33.90;9.10;;;;;;;31.18;53.59;100110.44;5054848;28;20226;-60
2022/07/09 03:14:38;;;;;;;25.47;8.27;;;;;;;31.05;53.17;100104.59;5056686;28;20052;-59
2022/07/09 03:17:09;;;;;;;20.70;8.27;;;;;;;30.92;53.46;100095.09;5056831;28;20083;-60
2022/07/09 03:19:40;;;;;;;14.17;7.70;;;;;;;30.77;53.89;100102.06;5055869;28;20345;-60
2022/07/09 03:22:13;;;;;;;14.10;7.00;;;;;;;30.77;53.37;100096.69;5054749;28;20396;-61
2022/07/09 03:24:44;;;;;;;18.57;6.90;;;;;;;30.71;53.36;100097.34;5048566;28;20531;-61
2022/07/09 03:27:14;;;;;;;25.57;7.37;;;;;;;30.70;53.84;100101.03;5055177;28;20060;-60
2022/07/09 03:29:45;;;;;;;20.93;6.80;;;;;;;30.71;54.92;100100.88;5057498;28;20080;-60
2022/07/09 03:32:16;;;;;;;19.13;6.87;;;;;;;30.73;54.14;100106.13;5057600;28;20553;-61
2022/07/09 03:34:46;;;;;;;15.73;6.80;;;;;;;30.67;53.86;100102.19;5058465;28;20116;-61
2022/07/09 03:37:19;;;;;;;23.63;7.67;;;;;;;30.54;54.14;100091.00;5056521;28;20060;-62
2022/07/09 03:39:49;;;;;;;16.80;6.83;;;;;;;30.52;53.66;100110.00;5049384;28;20053;-63
2022/07/09 03:42:20;;;;;;;65.70;9.03;;;;;;;30.37;53.22;100099.97;5059286;28;20115;-62
2022/07/09 03:44:51;;;;;;;11.37;6.30;;;;;;;30.22;53.59;100102.34;5059172;28;20322;-62
2022/07/09 03:47:21;;;;;;;23.30;6.47;;;;;;;30.06;54.11;100103.91;5058941;28;20108;-61
2022/07/09 03:49:52;;;;;;;16.80;6.23;;;;;;;29.96;53.91;100092.38;5058939;28;20045;-61
2022/07/09 03:52:24;;;;;;;17.27;6.27;;;;;;;29.89;53.44;100096.66;5059731;28;20056;-61
2022/07/09 03:54:55;;;;;;;10.13;5.20;;;;;;;29.79;53.86;100085.13;5058992;28;20053;-61
2022/07/09 03:57:26;;;;;;;15.47;5.10;;;;;;;29.82;54.27;100091.03;5059625;28;20067;-61
2022/07/09 03:59:56;;;;;;;14.17;5.67;;;;;;;29.86;54.40;100092.44;5059839;28;20045;-61
2022/07/09 04:02:27;;;;;;;19.83;4.63;;;;;;;29.71;52.48;100093.13;5059558;28;20045;-60
2022/07/09 04:04:58;;;;;;;13.97;5.13;;;;;;;29.60;52.79;100097.69;5059624;28;20063;-60
2022/07/09 04:07:30;;;;;;;16.70;4.47;;;;;;;29.54;53.75;100098.31;5053731;28;20418;-60
2022/07/09 04:10:01;;;;;;;23.53;4.83;;;;;;;29.52;53.56;100094.91;5043106;28;20052;-60
2022/07/09 04:12:32;;;;;;;29.57;5.10;;;;;;;29.55;53.75;100099.97;5040060;28;20053;-61
2022/07/09 04:15:02;;;;;;;10.73;3.87;;;;;;;29.59;52.46;100090.63;5042941;28;20109;-60
2022/07/09 04:17:34;;;;;;;50.43;5.93;;;;;;;29.55;53.05;100083.84;5046751;28;20370;-61
2022/07/09 04:20:05;;;;;;;10.37;3.80;;;;;;;29.48;52.55;100093.53;5051549;28;20059;-60
2022/07/09 04:22:37;;;;;;;19.83;4.63;;;;;;;29.24;52.55;100092.25;5053678;28;20163;-61
2022/07/09 04:25:08;;;;;;;15.87;3.87;;;;;;;29.14;51.98;100096.84;5052777;28;20053;-61
2022/07/09 04:27:39;;;;;;;13.30;4.50;;;;;;;29.10;53.53;100095.41;5051695;28;20045;-60
2022/07/09 04:30:11;;;;;;;15.47;4.57;;;;;;;28.97;53.27;100076.06;5050562;28;20256;-61
2022/07/09 04:32:41;;;;;;;13.13;5.13;;;;;;;29.04;53.10;100098.69;5051028;28;20086;-61
2022/07/09 04:35:12;;;;;;;17.73;5.07;;;;;;;28.88;53.53;100090.38;5050294;28;20061;-61
2022/07/09 04:37:44;;;;;;;20.63;5.57;;;;;;;28.89;54.27;100092.09;5051134;28;20102;-61
2022/07/09 04:40:15;;;;;;;21.83;5.03;;;;;;;28.94;54.17;100089.81;5052042;28;20053;-61
2022/07/09 04:42:45;;;;;;;18.73;5.43;;;;;;;28.97;54.26;100089.50;5052973;28;20543;-61
2022/07/09 04:45:16;;;;;;;16.13;4.90;;;;;;;28.89;53.98;100073.28;5053695;28;20094;-60
2022/07/09 04:47:47;;;;;;;14.80;4.80;;;;;;;28.94;53.89;100089.81;5053496;28;20041;-60
2022/07/09 04:50:18;;;;;;;18.60;5.87;;;;;;;28.88;54.77;100095.78;5053283;28;20076;-61
2022/07/09 04:52:50;;;;;;;14.37;5.33;;;;;;;28.74;54.21;100089.88;5051703;28;20218;-60
2022/07/09 04:55:21;;;;;;;11.27;5.37;;;;;;;28.70;54.10;100088.47;5051933;28;20229;-61
2022/07/09 04:57:52;;;;;;;12.77;5.83;;;;;;;28.59;54.65;100097.56;5052300;28;20067;-60
2022/07/09 05:00:23;;;;;;;16.63;6.00;;;;;;;28.53;54.50;100091.91;5053727;28;20116;-60
2022/07/09 05:02:53;;;;;;;15.13;5.67;;;;;;;28.56;54.34;100088.97;5053099;28;20055;-61
2022/07/09 05:05:25;;;;;;;12.17;6.07;;;;;;;28.53;53.73;100089.22;5052447;28;20104;-61
2022/07/09 05:07:57;;;;;;;12.00;5.73;;;;;;;28.49;53.08;100085.16;5053600;28;20087;-60
2022/07/09 05:10:28;;;;;;;15.33;4.87;;;;;;;28.42;52.69;100078.63;5054136;28;20055;-60
2022/07/09 05:12:59;;;;;;;12.27;4.67;;;;;;;28.30;52.39;100086.84;5053782;28;20060;-60
2022/07/09 05:15:31;;;;;;;27.80;6.00;;;;;;;28.24;52.64;100082.03;5052861;28;20293;-60
2022/07/09 05:18:02;;;;;;;18.83;5.00;;;;;;;28.19;52.97;100095.06;5053371;28;20068;-60
2022/07/09 05:20:33;;;;;;;13.43;5.57;;;;;;;28.20;53.00;100096.75;5054058;28;20052;-59
2022/07/09 05:23:05;;;;;;;14.20;4.80;;;;;;;28.13;51.82;100087.56;5051440;28;20456;-61
2022/07/09 05:25:39;;;;;;;33.13;6.03;;;;;;;28.14;52.72;100086.59;5052097;28;20195;-60
2022/07/09 05:28:09;;;;;;;45.57;7.57;;;;;;;28.17;52.44;100075.53;5052978;28;20119;-61
2022/07/09 05:30:40;;;;;;;15.57;5.93;;;;;;;28.16;51.46;100074.72;5052842;28;20072;-61
2022/07/09 05:33:11;;;;;;;32.17;6.40;;;;;;;28.18;52.55;100082.59;5054317;28;20087;-60
2022/07/09 05:35:41;;;;;;;62.47;7.90;;;;;;;28.38;52.85;100081.59;5054443;28;20124;-59
2022/07/09 05:38:14;;;;;;;16.90;6.77;;;;;;;28.45;52.13;100094.47;5053956;28;20068;-60
2022/07/09 05:40:44;;;;;;;19.27;7.33;;;;;;;28.47;51.47;100098.72;5053909;28;20049;-60
2022/07/09 05:43:15;;;;;;;18.27;6.03;;;;;;;28.51;51.40;100104.69;5058046;28;20276;-61
2022/07/09 05:45:45;;;;;;;10.33;5.80;;;;;;;28.51;51.60;100110.03;5058074;28;20071;-61
2022/07/09 05:48:16;;;;;;;24.70;6.10;;;;;;;28.47;52.27;100109.47;5058056;28;20053;-61
2022/07/09 05:50:47;;;;;;;18.57;6.37;;;;;;;28.39;52.43;100112.84;5057311;28;20124;-61
2022/07/09 05:53:19;;;;;;;12.30;5.67;;;;;;;28.39;52.30;100115.53;5057432;28;20060;-60
2022/07/09 05:55:49;;;;;;;18.27;5.83;;;;;;;28.40;53.40;100103.78;5058208;28;20091;-60
2022/07/09 05:58:20;;;;;;;25.57;6.67;;;;;;;28.55;53.62;100114.13;5057600;28;20070;-61
2022/07/09 06:00:51;;;;;;;14.87;6.23;;;;;;;28.51;52.78;100104.69;5058047;28;20060;-61
2022/07/09 06:03:21;;;;;;;16.97;5.60;;;;;;;28.45;53.02;100099.84;5058073;28;20139;-62
2022/07/09 06:05:52;;;;;;;13.37;5.73;;;;;;;28.37;53.29;100100.56;5058378;28;20484;-61
2022/07/09 06:08:25;;;;;;;18.67;6.03;;;;;;;28.42;54.29;100095.59;5057830;28;20111;-61
2022/07/09 06:10:56;;;;;;;16.07;6.17;;;;;;;28.46;53.87;100096.19;5056720;28;20056;-62
2022/07/09 06:13:27;;;;;;;21.13;6.33;;;;;;;28.40;54.21;100098.41;5056854;28;20147;-61
2022/07/09 06:15:57;;;;;;;24.97;6.17;;;;;;;28.39;53.72;100102.09;5056102;28;20063;-60
2022/07/09 06:18:28;;;;;;;14.17;5.93;;;;;;;28.36;53.64;100097.03;5054959;28;20060;-61
2022/07/09 06:21:01;;;;;;;15.47;5.70;;;;;;;28.40;54.18;100103.78;5053505;28;20106;-61
2022/07/09 06:23:33;;;;;;;20.47;5.27;;;;;;;28.35;53.50;100100.69;5055784;28;20053;-61
2022/07/09 06:26:04;;;;;;;18.23;5.20;;;;;;;28.21;53.56;100103.84;5055127;28;20075;-61
2022/07/09 06:28:37;;;;;;;59.23;7.97;;;;;;;28.15;53.72;100109.75;5055133;28;20067;-60
2022/07/09 06:31:08;;;;;;;14.20;4.93;;;;;;;28.07;54.33;100112.31;5052954;28;20494;-62
2022/07/09 06:33:38;;;;;;;12.03;5.43;;;;;;;27.88;54.26;100107.78;5054545;28;20048;-61
2022/07/09 06:36:09;;;;;;;15.10;5.63;;;;;;;27.84;54.81;100107.22;5054852;28;20057;-61
2022/07/09 06:41:25;;;;;;;21.60;6.30;;;;;;;27.76;54.60;100115.09;5057007;28;20053;-61
2022/07/09 06:43:55;;;;;;;13.63;5.70;;;;;;;27.72;55.61;100113.66;5054209;28;20051;-61
2022/07/09 06:46:26;;;;;;;17.13;5.77;;;;;;;27.74;55.73;100117.06;5053476;28;20060;-61
2022/07/09 06:48:57;;;;;;;15.27;6.23;;;;;;;27.77;55.90;100115.94;5055949;28;20063;-61
2022/07/09 06:51:28;;;;;;;13.80;5.23;;;;;;;27.75;54.71;100129.50;5054909;28;20049;-61
2022/07/09 06:54:00;;;;;;;14.33;5.43;;;;;;;27.64;55.54;100129.63;5055201;28;20059;-61
2022/07/09 06:56:31;;;;;;;35.37;7.10;;;;;;;27.60;56.32;100136.25;5055992;28;20046;-62
2022/07/09 06:59:02;;;;;;;15.43;6.27;;;;;;;27.59;55.90;100139.94;5055450;28;20075;-61
2022/07/09 07:01:32;;;;;;;29.40;6.83;;;;;;;27.54;56.14;100138.50;5056536;28;20065;-60
2022/07/09 07:04:03;;;;;;;18.33;6.27;;;;;;;27.43;56.89;100138.63;5056760;28;20210;-60
2022/07/09 07:06:34;;;;;;;17.60;6.23;;;;;;;27.36;56.64;100145.53;5056167;28;20065;-60
2022/07/09 07:09:06;;;;;;;18.07;5.83;;;;;;;27.30;57.26;100152.25;5056503;28;20213;-62
2022/07/09 07:11:37;;;;;;;20.43;6.63;;;;;;;27.20;57.91;100153.22;5056404;28;20265;-61
2022/07/09 07:14:07;;;;;;;16.97;6.83;;;;;;;27.22;57.71;100153.94;5056474;28;20176;-60
2022/07/09 07:16:38;;;;;;;18.20;6.50;;;;;;;27.26;56.64;100150.00;5056531;28;20253;-61
2022/07/09 07:19:09;;;;;;;19.90;7.63;;;;;;;27.13;57.90;100152.84;5056240;28;20067;-61
2022/07/09 07:21:40;;;;;;;11.63;6.27;;;;;;;27.15;57.93;100144.69;5056094;28;20298;-61
2022/07/09 07:24:13;;;;;;;14.20;6.17;;;;;;;27.14;58.19;100140.31;5056341;28;20262;-60
2022/07/09 07:26:43;;;;;;;10.93;6.63;;;;;;;26.78;57.79;100088.91;5054624;28;20072;-60
2022/07/09 07:29:14;;;;;;;12.43;6.43;;;;;;;27.00;57.94;100145.03;5056534;28;20125;-61
2022/07/09 07:31:45;;;;;;;14.57;7.27;;;;;;;26.92;58.07;100135.97;5055375;28;20322;-60
2022/07/09 07:34:15;;;;;;;18.70;7.47;;;;;;;26.95;58.45;100141.91;5055773;28;20122;-59
2022/07/09 07:36:51;;;;;;;20.27;6.53;;;;;;;27.03;58.70;100130.50;5055227;28;20057;-61
2022/07/09 07:39:25;;;;;;;18.73;6.43;;;;;;;27.05;58.39;100132.06;5054596;28;20102;-61
2022/07/09 07:41:55;;;;;;;16.43;6.53;;;;;;;27.07;57.79;100140.84;5055449;28;20166;-61
2022/07/09 07:44:26;;;;;;;15.00;6.13;;;;;;;26.98;57.04;100138.09;5055364;28;20079;-61
2022/07/09 07:46:56;;;;;;;17.63;5.90;;;;;;;26.93;57.11;100138.50;5053956;28;20106;-60
2022/07/09 07:49:27;;;;;;;9.60;5.60;;;;;;;26.90;57.06;100138.78;5055943;28;20095;-60
2022/07/09 07:51:57;;;;;;;9.33;5.57;;;;;;;26.84;56.90;100142.00;5055697;28;20056;-60
2022/07/09 07:54:30;;;;;;;16.80;6.03;;;;;;;26.77;57.05;100146.19;5054312;28;20056;-60
2022/07/09 07:57:00;;;;;;;14.27;5.83;;;;;;;26.65;57.14;100156.97;5055222;28;20079;-60
2022/07/09 07:59:31;;;;;;;15.47;5.30;;;;;;;26.55;57.00;100161.41;5055730;28;20233;-60
2022/07/09 08:02:02;;;;;;;16.43;5.73;;;;;;;26.22;57.83;100165.94;5053969;28;20057;-60
2022/07/09 08:04:32;;;;;;;13.93;5.47;;;;;;;26.00;58.08;100166.84;5055485;28;20321;-60
2022/07/09 08:07:03;;;;;;;16.03;5.30;;;;;;;25.78;58.86;100161.53;5055630;28;20068;-61
2022/07/09 08:09:35;;;;;;;20.67;6.40;;;;;;;25.60;59.38;100163.88;5054715;28;20287;-61
2022/07/09 08:12:06;;;;;;;15.80;5.37;;;;;;;25.48;59.69;100167.56;5055156;28;20071;-61
2022/07/09 08:14:37;;;;;;;12.70;6.03;;;;;;;25.45;60.43;100181.19;5055355;28;20059;-60
2022/07/09 08:17:08;;;;;;;9.50;4.80;;;;;;;25.40;60.28;100173.50;5055129;28;20345;-62
2022/07/09 08:19:39;;;;;;;11.50;5.30;;;;;;;25.23;60.86;100172.19;5054415;28;20055;-61
2022/07/09 08:22:09;;;;;;;7.97;4.70;;;;;;;25.25;60.65;100180.94;5055338;28;20234;-61
2022/07/09 08:24:42;;;;;;;12.13;4.30;;;;;;;25.30;60.94;100184.09;5054943;28;20060;-61
2022/07/09 08:27:12;;;;;;;16.13;4.30;;;;;;;25.43;60.16;100189.31;5055348;28;20226;-61
2022/07/09 08:29:43;;;;;;;11.70;3.80;;;;;;;25.59;60.41;100191.63;5055115;28;20116;-60
2022/07/09 08:32:13;;;;;;;11.37;3.47;;;;;;;25.66;59.56;100198.19;5053895;28;20045;-60
2022/07/09 08:34:44;;;;;;;22.50;3.53;;;;;;;25.65;59.37;100187.59;5054516;28;20207;-61
2022/07/09 08:37:15;;;;;;;15.43;3.93;;;;;;;25.50;59.34;100200.38;5054879;28;20041;-60
2022/07/09 08:39:47;;;;;;;21.73;5.17;;;;;;;25.31;59.38;100191.16;5054427;28;20064;-60
2022/07/09 08:42:18;;;;;;;10.33;4.10;;;;;;;25.25;60.24;100191.63;5054778;28;20056;-60
2022/07/09 08:44:49;;;;;;;7.90;4.40;;;;;;;25.27;60.27;100195.03;5054855;28;20326;-60
2022/07/09 08:47:21;;;;;;;10.57;4.40;;;;;;;25.16;60.25;100186.97;5054722;28;20116;-61
2022/07/09 08:49:56;;;;;;;13.87;4.73;;;;;;;25.02;60.41;100195.22;5053697;28;20057;-60
2022/07/09 08:52:27;;;;;;;21.17;5.53;;;;;;;25.03;60.67;100187.06;5054847;28;20118;-60
2022/07/09 08:54:59;;;;;;;14.17;4.83;;;;;;;25.15;60.67;100190.63;5052966;28;20052;-59
2022/07/09 08:57:29;;;;;;;25.00;6.33;;;;;;;25.27;60.58;100194.19;5054782;28;20061;-60
2022/07/09 09:00:01;;;;;;;15.37;5.10;;;;;;;25.27;59.84;100188.84;5055059;28;20060;-60
2022/07/09 09:02:37;;;;;;;18.63;7.10;;;;;;;25.25;60.16;100191.63;5054708;28;20052;-60
2022/07/09 09:05:12;;;;;;;27.33;6.00;;;;;;;25.22;60.30;100194.56;5054885;28;20064;-60
2022/07/09 09:07:43;;;;;;;16.10;5.37;;;;;;;25.09;60.73;100201.81;5054821;28;20052;-60
2022/07/09 09:10:25;;;;;;;16.33;4.40;;;;;;;24.93;60.97;100194.13;5055138;28;20296;-60
2022/07/09 09:12:59;;;;;;;17.13;4.23;;;;;;;24.70;61.02;100185.19;5054751;28;20044;-60
2022/07/09 09:15:30;;;;;;;12.50;4.50;;;;;;;24.82;60.59;100189.59;5054896;28;20116;-59
2022/07/09 09:18:01;;;;;;;8.47;4.60;;;;;;;24.84;60.37;100193.03;5058382;28;20075;-60
2022/07/09 09:20:32;;;;;;;11.93;4.63;;;;;;;24.94;60.11;100188.66;5058535;28;20072;-59
2022/07/09 09:23:04;;;;;;;7.97;4.47;;;;;;;24.99;60.11;100196.31;5058271;28;20061;-60
2022/07/09 09:25:36;;;;;;;17.97;5.80;;;;;;;25.04;59.60;100198.66;5058825;28;20052;-60
2022/07/09 09:28:08;;;;;;;13.93;5.20;;;;;;;25.01;59.73;100198.84;5057379;28;20080;-59
2022/07/09 09:30:44;;;;;;;9.80;4.40;;;;;;;25.00;59.72;100202.50;5057145;28;20068;-60
2022/07/09 09:33:18;;;;;;;21.50;4.93;;;;;;;24.96;59.74;100189.41;5058452;28;20067;-60
2022/07/09 09:35:48;;;;;;;14.10;5.00;;;;;;;25.08;59.91;100210.78;5058185;28;20336;-60
2022/07/09 09:38:29;;;;;;;21.57;5.53;;;;;;;25.02;59.77;100205.94;5058247;28;20306;-59
2022/07/09 09:41:01;;;;;;;13.67;5.30;;;;;;;24.98;60.01;100205.28;5057797;28;20057;-60
2022/07/09 09:43:33;;;;;;;11.73;5.70;;;;;;;24.96;59.98;100208.09;5058279;28;20374;-60
2022/07/09 09:46:05;;;;;;;15.10;6.30;;;;;;;24.84;59.86;100203.72;5058503;28;20333;-60
2022/07/09 09:48:36;;;;;;;11.50;4.70;;;;;;;24.50;60.60;100216.94;5058529;28;20071;-59
2022/07/09 09:51:08;;;;;;;15.40;6.63;;;;;;;24.18;61.56;100221.13;5056477;28;20060;-59
2022/07/09 09:53:40;;;;;;;26.73;5.97;;;;;;;23.94;61.74;100215.78;5057025;28;20325;-61
2022/07/09 09:56:13;;;;;;;45.30;6.13;;;;;;;23.77;62.20;100217.03;5057872;28;20072;-60
2022/07/09 09:58:43;;;;;;;12.43;4.97;;;;;;;23.78;62.26;100213.38;5057825;28;20072;-61
2022/07/09 10:01:14;;;;;;;10.43;4.20;;;;;;;23.82;62.38;100220.22;5057590;28;20064;-60
2022/07/09 10:03:47;;;;;;;27.67;5.67;;;;;;;23.63;62.56;100210.81;5057140;28;20057;-61
2022/07/09 10:06:18;;;;;;;9.90;4.40;;;;;;;23.43;63.18;100214.06;5057709;28;20210;-61
2022/07/09 10:08:48;;;;;;;12.37;4.93;;;;;;;23.35;63.85;100216.41;5057239;28;20064;-60
2022/07/09 10:11:21;;;;;;;8.30;4.30;;;;;;;23.18;64.30;100218.44;5057310;28;20089;-61
2022/07/09 10:13:56;;;;;;;12.67;4.70;;;;;;;22.50;65.05;100138.78;5057327;28;20229;-60
2022/07/09 10:16:37;;;;;;;18.67;4.60;;;;;;;22.68;65.29;100198.75;5057778;28;20065;-61
2022/07/09 10:19:08;;;;;;;18.43;4.50;;;;;;;22.65;66.03;100236.25;5056275;28;20121;-61
2022/07/09 10:21:40;;;;;;;13.67;4.00;;;;;;;22.48;66.69;100236.53;5055703;28;20052;-60
2022/07/09 10:24:11;;;;;;;9.87;4.97;;;;;;;22.31;67.13;100235.81;5056151;28;20132;-60
2022/07/09 10:26:50;;;;;;;11.33;4.40;;;;;;;21.97;67.56;100216.72;5057417;28;20102;-59
2022/07/09 10:29:25;;;;;;;12.05;4.25;;;;;;;21.96;68.07;100246.06;5055612;28;20107;-60
2022/07/09 10:31:55;;;;;;;16.10;4.20;;;;;;;21.12;68.66;100132.59;5122203;22;20096;-84
2022/07/09 10:34:52;;;;;;;21.23;5.47;;;;;;;21.53;68.51;100217.72;5036031;28;20121;-84
2022/07/09 10:37:33;;;;;;;8.10;4.00;;;;;;;21.69;68.81;100248.66;5037961;28;20041;-83
2022/07/09 10:40:14;;;;;;;20.33;5.57;;;;;;;21.36;68.78;100225.88;5037702;28;20329;-84
2022/07/09 10:42:58;;;;;;;24.43;5.13;;;;;;;21.37;69.63;100247.97;5039099;28;20300;-86
2022/07/09 10:45:37;;;;;;;9.73;4.33;;;;;;;21.33;69.29;100252.66;5038215;28;20487;-88
2022/07/09 10:48:11;;;;;;;15.10;4.85;;;;;;;21.16;69.68;100243.03;5019430;28;20380;-84
2022/07/09 10:50:43;;;;;;;17.57;5.50;;;;;;;20.99;69.49;100228.16;5022725;28;20076;-87
2022/07/09 10:56:43;;;;;;;14.43;4.73;;;;;;;20.65;70.06;100214.22;5002416;28;20315;-88
2022/07/09 10:59:20;;;;;;;14.17;5.00;;;;;;;20.89;69.90;100259.72;5031210;28;20291;-87
2022/07/09 11:02:28;;;;;;;11.57;4.53;;;;;;;20.73;70.67;100260.69;4968251;28;20478;-95
2022/07/09 11:05:12;;;;;;;13.73;4.90;;;;;;;20.51;70.67;100238.00;4971635;28;20358;-90
2022/07/09 11:08:03;;;;;;;22.97;5.50;;;;;;;20.51;70.76;100231.84;4971273;28;20295;-90
2022/07/09 11:10:36;;;;;;;11.83;4.20;;;;;;;20.58;70.91;100235.91;4965624;28;20381;-89
2022/07/09 11:13:10;;;;;;;16.40;4.53;;;;;;;20.28;70.48;100188.06;4963013;28;20307;-86
2022/07/09 11:15:43;;;;;;;10.53;4.90;;;;;;;20.63;70.09;100253.25;4966166;28;20289;-87
2022/07/09 11:18:19;;;;;;;10.13;4.37;;;;;;;20.57;70.18;100243.00;4991014;28;20280;-88
2022/07/09 11:20:49;;;;;;;13.60;4.47;;;;;;;20.76;70.17;100279.94;5041931;28;20346;-87
2022/07/09 11:23:21;;;;;;;10.43;5.23;;;;;;;20.72;69.82;100274.91;5037943;28;20325;-88
2022/07/09 11:25:52;;;;;;;12.27;5.00;;;;;;;20.57;70.16;100280.19;5036092;28;20288;-88
2022/07/09 11:28:26;;;;;;;9.67;5.20;;;;;;;20.53;70.48;100273.28;5040434;28;20371;-87
2022/07/09 11:31:02;;;;;;;21.63;6.80;;;;;;;20.52;70.52;100234.44;5040738;28;20308;-88
2022/07/09 11:36:19;;;;;;;12.33;4.17;;;;;;;20.82;69.43;100270.78;5035188;28;20314;-84
2022/07/09 11:38:54;;;;;;;12.23;4.87;;;;;;;20.77;69.23;100275.50;5028215;28;20368;-84
2022/07/09 11:41:25;;;;;;;9.33;4.50;;;;;;;20.64;69.52;100281.53;5036278;28;20293;-84
2022/07/09 11:43:55;;;;;;;10.47;4.50;;;;;;;20.47;69.86;100271.00;5029076;28;20292;-84
2022/07/09 11:46:27;;;;;;;10.23;4.47;;;;;;;20.50;69.96;100284.09;5024150;28;20285;-84